createdAt,value
2022-12-13T00:01:54.262Z,95039.19
2022-12-13T00:04:24.763Z,95064.84
2022-12-13T00:06:54.951Z,95064.91
2022-12-13T00:09:24.392Z,95064.84
2022-12-13T00:11:53.688Z,95017.03
2022-12-13T00:14:23.948Z,95074.41
2022-12-13T00:16:52.391Z,95050.84
2022-12-13T00:19:21.870Z,95062.41
2022-12-13T00:21:50.725Z,95061.78
2022-12-13T00:24:19.079Z,95059.69
2022-12-13T00:26:47.588Z,94984.84
2022-12-13T00:29:16.287Z,95055.47
2022-12-13T00:32:01.622Z,95033.06
2022-12-13T00:34:30.500Z,95032.63
2022-12-13T00:37:05.348Z,95049.88
2022-12-13T00:39:33.886Z,94993.16
2022-12-13T00:42:02.549Z,95047.16
2022-12-13T00:44:31.393Z,95051.03
2022-12-13T00:47:01.209Z,95034.50
2022-12-13T00:49:29.800Z,95044.34
2022-12-13T00:51:58.211Z,95011.03
2022-12-13T00:54:26.699Z,95038.94
2022-12-13T00:56:55.749Z,95009.66
2022-12-13T00:59:24.761Z,95039.09
2022-12-13T01:01:54.445Z,95009.06
2022-12-13T01:04:24.323Z,95028.63
2022-12-13T01:06:54.030Z,95023.22
2022-12-13T01:09:27.402Z,95001.47
2022-12-13T01:11:59.148Z,95039.66
2022-12-13T01:14:28.595Z,95032.72
2022-12-13T01:16:57.447Z,95032.06
2022-12-13T01:19:30.641Z,95034.53
2022-12-13T01:22:00.808Z,95007.63
2022-12-13T01:24:30.240Z,95036.06
2022-12-13T01:26:59.079Z,95028.91
2022-12-13T01:29:28.364Z,95033.69
2022-12-13T01:31:57.071Z,95028.63
2022-12-13T01:34:27.706Z,95030.72
2022-12-13T01:36:58.685Z,95031.34
2022-12-13T01:39:28.362Z,94965.03
2022-12-13T01:42:00.146Z,94854.25
2022-12-13T01:45:06.396Z,95023.50
2022-12-13T01:47:40.639Z,95029.56
2022-12-13T01:50:14.070Z,95019.81
2022-12-13T01:52:42.527Z,95017.00
2022-12-13T01:55:11.426Z,95020.06
2022-12-13T01:57:45.590Z,94980.06
2022-12-13T02:00:15.147Z,95017.38
2022-12-13T02:02:43.758Z,95013.63
2022-12-13T02:05:20.584Z,94863.25
2022-12-13T02:07:51.188Z,95022.22
2022-12-13T02:10:19.973Z,95014.06
2022-12-13T02:12:48.858Z,95010.03
2022-12-13T02:15:20.494Z,95012.63
2022-12-13T02:18:12.755Z,95009.03
2022-12-13T02:21:15.583Z,95011.81
2022-12-13T02:24:28.566Z,95010.03
2022-12-13T02:27:02.383Z,94988.44
2022-12-13T02:30:01.578Z,95003.75
2022-12-13T02:32:35.749Z,94999.88
2022-12-13T02:35:10.306Z,94997.53
2022-12-13T02:37:48.273Z,94966.69
2022-12-13T02:40:23.670Z,95001.72
2022-12-13T02:43:00.397Z,95010.03
2022-12-13T02:45:32.965Z,94999.41
2022-12-13T02:48:05.677Z,94996.78
2022-12-13T02:50:35.469Z,94994.78
2022-12-13T02:53:04.666Z,95004.44
2022-12-13T02:55:36.024Z,94976.19
2022-12-13T02:58:04.510Z,94959.34
2022-12-13T03:00:43.190Z,94970.31
2022-12-13T03:03:28.288Z,94960.56
2022-12-13T03:06:24.144Z,94993.72
2022-12-13T03:09:07.852Z,95007.41
2022-12-13T03:12:05.307Z,94996.84
2022-12-13T03:14:37.915Z,94989.56
2022-12-13T03:17:08.956Z,94908.44
2022-12-13T03:19:38.975Z,94958.06
2022-12-13T03:22:08.497Z,94983.06
2022-12-13T03:24:37.216Z,94908.00
2022-12-13T03:27:06.136Z,94975.91
2022-12-13T03:29:34.513Z,94839.94
2022-12-13T03:32:03.829Z,94976.63
2022-12-13T03:34:43.706Z,94979.44
2022-12-13T03:37:14.953Z,94978.53
2022-12-13T03:39:43.319Z,94972.47
2022-12-13T03:42:11.657Z,94963.56
2022-12-13T03:44:39.993Z,94965.91
2022-12-13T03:47:08.437Z,94944.78
2022-12-13T03:49:36.947Z,94917.47
2022-12-13T03:52:05.436Z,94966.53
2022-12-13T03:54:35.243Z,94963.72
2022-12-13T03:57:03.659Z,94964.06
2022-12-13T03:59:32.025Z,94965.59
2022-12-13T04:02:00.846Z,94958.56
2022-12-13T04:04:29.448Z,94964.16
2022-12-13T04:06:58.419Z,94941.94
2022-12-13T04:09:29.239Z,94919.69
2022-12-13T04:12:16.761Z,94962.94
2022-12-13T04:14:45.156Z,94912.56
2022-12-13T04:17:13.484Z,94906.72
2022-12-13T04:19:41.859Z,94902.13
2022-12-13T04:22:10.207Z,94921.19
2022-12-13T04:24:38.884Z,94956.09
2022-12-13T04:27:08.705Z,94953.47
2022-12-13T04:29:37.316Z,94954.91
2022-12-13T04:32:26.721Z,94954.28
2022-12-13T04:35:01.023Z,94935.63
2022-12-13T04:37:30.422Z,94945.28
2022-12-13T04:40:00.967Z,94904.38
2022-12-13T04:42:31.727Z,94945.28
2022-12-13T04:45:00.292Z,94947.28
2022-12-13T04:47:28.652Z,94929.00
2022-12-13T04:49:57.071Z,94960.34
2022-12-13T04:52:25.525Z,94944.81
2022-12-13T04:54:55.467Z,94913.63
2022-12-13T04:57:24.900Z,94945.28
2022-12-13T04:59:55.026Z,94945.13
2022-12-13T05:02:24.349Z,94893.09
2022-12-13T05:04:54.003Z,94947.53
2022-12-13T05:07:23.156Z,94941.69
2022-12-13T05:09:51.532Z,94957.28
2022-12-13T05:12:22.599Z,94956.31
2022-12-13T05:14:51.860Z,94955.97
2022-12-13T05:17:22.241Z,94847.06
2022-12-13T05:19:50.593Z,94940.63
2022-12-13T05:22:20.847Z,94901.66
2022-12-13T05:24:50.628Z,94964.63
2022-12-13T05:27:25.017Z,94956.78
2022-12-13T05:30:02.976Z,94948.84
2022-12-13T05:32:44.120Z,94969.69
2022-12-13T05:35:21.847Z,94955.88
2022-12-13T05:37:53.543Z,94972.47
2022-12-13T05:40:23.205Z,94962.44
2022-12-13T05:42:51.768Z,94947.03
2022-12-13T05:45:29.765Z,94953.34
2022-12-13T05:47:59.809Z,94956.84
2022-12-13T05:50:28.345Z,94959.47
2022-12-13T05:52:56.842Z,94930.06
2022-12-13T05:55:25.333Z,94901.28
2022-12-13T05:57:53.819Z,94956.16
2022-12-13T06:00:31.217Z,94954.81
2022-12-13T06:03:02.125Z,94943.97
2022-12-13T06:05:31.114Z,94932.25
2022-12-13T06:08:00.578Z,94957.78
2022-12-13T06:10:34.941Z,94965.78
2022-12-13T06:13:21.634Z,94940.53
2022-12-13T06:16:01.247Z,94968.59
2022-12-13T06:18:32.791Z,94967.16
2022-12-13T06:21:02.842Z,94948.47
2022-12-13T06:23:32.265Z,94960.00
2022-12-13T06:26:01.077Z,94959.00
2022-12-13T06:28:29.385Z,94964.88
2022-12-13T06:31:02.343Z,94963.72
2022-12-13T06:33:35.800Z,94963.38
2022-12-13T06:36:05.755Z,94945.84
2022-12-13T06:38:34.497Z,94965.63
2022-12-13T06:41:13.139Z,94979.53
2022-12-13T06:43:44.207Z,94972.28
2022-12-13T06:46:14.888Z,94969.50
2022-12-13T06:48:45.205Z,94863.94
2022-12-13T06:51:22.456Z,94953.34
2022-12-13T06:53:51.912Z,94969.13
2022-12-13T06:56:20.408Z,94970.16
2022-12-13T06:58:49.006Z,94968.34
2022-12-13T07:01:24.594Z,94971.13
2022-12-13T07:03:56.309Z,94981.59
2022-12-13T07:06:25.857Z,94925.91
2022-12-13T07:08:56.951Z,94980.03
2022-12-13T07:11:28.150Z,94980.38
2022-12-13T07:13:58.487Z,94977.31
2022-12-13T07:16:28.332Z,94971.28
2022-12-13T07:19:00.732Z,94942.41
2022-12-13T07:21:31.981Z,94977.16
2022-12-13T07:24:01.360Z,94986.69
2022-12-13T07:26:29.766Z,94981.31
2022-12-13T07:28:58.262Z,94991.88
2022-12-13T07:31:27.057Z,94986.66
2022-12-13T07:33:55.759Z,94986.81
2022-12-13T07:36:29.124Z,94990.41
2022-12-13T07:38:57.833Z,94990.13
2022-12-13T07:41:28.095Z,94990.41
2022-12-13T07:43:57.175Z,94995.28
2022-12-13T07:46:33.477Z,94988.63
2022-12-13T07:49:03.809Z,95000.81
2022-12-13T07:51:35.406Z,94995.41
2022-12-13T07:54:06.490Z,95005.84
2022-12-13T07:56:36.167Z,94998.47
2022-12-13T07:59:04.746Z,94999.75
2022-12-13T08:01:34.819Z,94964.25
2022-12-13T08:04:03.985Z,95002.09
2022-12-13T08:06:36.562Z,94994.44
2022-12-13T08:09:07.129Z,94988.84
2022-12-13T08:11:35.823Z,94963.50
2022-12-13T08:14:04.395Z,94999.84
2022-12-13T08:16:32.936Z,94994.91
2022-12-13T08:19:04.274Z,94989.84
2022-12-13T08:21:54.754Z,94980.38
2022-12-13T08:24:24.772Z,94968.38
2022-12-13T08:26:53.172Z,94997.22
2022-12-13T08:29:22.318Z,94987.22
2022-12-13T08:32:01.175Z,94989.47
2022-12-13T08:34:30.225Z,94987.13
2022-12-13T08:37:02.285Z,94997.41
2022-12-13T08:39:34.479Z,94994.81
2022-12-13T08:42:15.796Z,94988.75
2022-12-13T08:44:48.117Z,94991.72
2022-12-13T08:47:24.763Z,94997.59
2022-12-13T08:49:55.273Z,94983.25
2022-12-13T08:52:25.467Z,94994.25
2022-12-13T08:54:54.215Z,94987.88
2022-12-13T08:57:22.516Z,94988.28
2022-12-13T08:59:51.156Z,94989.56
2022-12-13T09:02:19.613Z,94982.78
2022-12-13T09:04:48.036Z,94989.28
2022-12-13T09:07:16.316Z,94990.34
2022-12-13T09:09:46.389Z,94990.59
2022-12-13T09:12:29.773Z,94992.84
2022-12-13T09:15:01.308Z,94995.13
2022-12-13T09:17:37.028Z,94997.00
2022-12-13T09:20:28.086Z,94989.13
2022-12-13T09:23:01.999Z,94961.19
2022-12-13T09:25:37.448Z,95000.19
2022-12-13T09:28:09.235Z,95005.53
2022-12-13T09:30:37.997Z,95003.97
2022-12-13T09:33:17.853Z,94849.00
2022-12-13T09:35:56.001Z,95009.28
2022-12-13T09:38:24.423Z,94967.69
2022-12-13T09:40:58.455Z,95008.63
2022-12-13T09:43:32.546Z,95008.66
2022-12-13T09:46:13.501Z,94923.34
2022-12-13T09:49:01.742Z,94995.47
2022-12-13T09:51:41.544Z,94999.59
2022-12-13T09:54:20.054Z,94999.66
2022-12-13T09:56:51.888Z,94999.28
2022-12-13T09:59:22.833Z,95006.91
2022-12-13T10:01:51.826Z,95003.91
2022-12-13T10:04:20.443Z,94983.97
2022-12-13T10:06:53.363Z,94994.19
2022-12-13T10:09:22.360Z,94970.47
2022-12-13T10:11:53.838Z,94995.72
2022-12-13T10:14:28.274Z,94985.88
2022-12-13T10:16:59.426Z,94920.22
2022-12-13T10:19:34.330Z,94915.88
2022-12-13T10:22:05.203Z,94978.97
2022-12-13T10:24:53.093Z,94975.78
2022-12-13T10:27:28.956Z,94970.59
2022-12-13T10:30:03.071Z,94969.59
2022-12-13T10:32:37.718Z,94952.78
2022-12-13T10:35:22.049Z,94969.63
2022-12-13T10:37:50.668Z,94975.53
2022-12-13T10:40:33.382Z,94962.56
2022-12-13T10:43:18.434Z,94964.97
2022-12-13T10:45:59.987Z,94974.72
2022-12-13T10:48:38.306Z,94913.56
2022-12-13T10:51:11.001Z,94973.69
2022-12-13T10:53:47.406Z,94973.09
2022-12-13T10:56:23.093Z,94954.44
2022-12-13T10:59:16.508Z,94956.44
2022-12-13T11:01:45.537Z,94958.84
2022-12-13T11:04:27.964Z,94966.91
2022-12-13T11:06:57.910Z,94960.00
2022-12-13T11:09:29.012Z,94958.75
2022-12-13T11:12:00.219Z,94955.91
2022-12-13T11:14:40.317Z,94932.19
2022-12-13T11:17:18.291Z,94937.38
2022-12-13T11:19:50.818Z,94940.81
2022-12-13T11:22:23.641Z,94945.25
2022-12-13T11:24:54.460Z,94943.38
2022-12-13T11:27:50.021Z,94935.00
2022-12-13T11:30:24.023Z,94935.16
2022-12-13T11:33:14.004Z,94936.75
2022-12-13T11:35:56.265Z,94926.81
2022-12-13T11:38:31.900Z,94919.47
2022-12-13T11:41:07.693Z,94919.84
2022-12-13T11:43:42.761Z,94916.59
2022-12-13T11:46:22.356Z,94902.19
2022-12-13T11:48:57.677Z,94895.94
2022-12-13T11:51:32.458Z,94902.47
2022-12-13T11:54:05.007Z,94904.84
2022-12-13T11:56:38.840Z,94896.34
2022-12-13T11:59:24.243Z,94904.03
2022-12-13T12:02:04.926Z,94901.41
2022-12-13T12:04:39.682Z,94890.13
2022-12-13T12:07:31.960Z,94895.97
2022-12-13T12:10:07.793Z,94885.84
2022-12-13T12:12:37.821Z,94867.25
2022-12-13T12:15:15.246Z,94878.59
2022-12-13T12:17:46.589Z,94875.72
2022-12-13T12:20:23.761Z,94880.81
2022-12-13T12:23:01.470Z,94792.50
2022-12-13T12:25:43.657Z,94876.94
2022-12-13T12:28:22.618Z,94873.25
2022-12-13T12:30:57.975Z,94874.88
2022-12-13T12:33:38.414Z,94886.25
2022-12-13T12:36:20.163Z,94882.59
2022-12-13T12:39:20.763Z,94878.09
2022-12-13T12:42:11.771Z,94877.31
2022-12-13T12:44:53.409Z,94873.06
2022-12-13T12:47:57.546Z,94876.50
2022-12-13T12:50:37.249Z,94873.25
2022-12-13T12:53:39.103Z,94870.03
2022-12-13T12:56:21.311Z,94825.59
2022-12-13T12:58:57.079Z,94868.78
2022-12-13T13:01:43.912Z,94825.94
2022-12-13T13:04:22.482Z,94871.66
2022-12-13T13:07:01.381Z,94827.41
2022-12-13T13:09:31.393Z,94863.38
2022-12-13T13:12:29.415Z,94872.16
2022-12-13T13:14:53.448Z,94876.69
2022-12-13T13:17:55.102Z,94882.41
2022-12-13T13:20:26.850Z,94875.53
2022-12-13T13:23:31.961Z,94869.66
2022-12-13T13:26:15.968Z,94870.31
2022-12-13T13:28:42.739Z,94842.81
2022-12-13T13:31:11.410Z,94882.66
2022-12-13T13:33:47.072Z,94887.28
2022-12-13T13:36:48.438Z,94886.69
2022-12-13T13:39:20.253Z,94886.53
2022-12-13T13:42:11.209Z,94890.59
2022-12-13T13:44:55.046Z,94889.38
2022-12-13T13:47:44.679Z,94889.50
2022-12-13T13:50:53.672Z,94878.22
2022-12-13T13:53:57.787Z,94884.28
2022-12-13T14:00:24.748Z,94896.84
2022-12-13T14:03:34.977Z,94893.19
2022-12-13T14:06:49.554Z,94900.50
2022-12-13T14:09:47.187Z,94849.56
2022-12-13T14:12:57.434Z,94863.31
2022-12-13T14:16:06.580Z,94906.38
2022-12-13T14:19:24.648Z,94883.13
2022-12-13T14:22:17.070Z,94891.03
2022-12-13T14:24:55.332Z,94894.50
2022-12-13T14:27:37.109Z,94891.88
2022-12-13T14:30:26.979Z,94890.44
2022-12-13T14:32:55.207Z,94892.47
2022-12-13T14:35:27.557Z,94893.69
2022-12-13T14:38:02.771Z,94912.97
2022-12-13T14:40:34.208Z,94849.19
2022-12-13T14:43:03.282Z,94888.88
2022-12-13T14:45:33.707Z,94896.16
2022-12-13T14:48:06.012Z,94923.28
2022-12-13T14:50:36.853Z,94903.06
2022-12-13T14:53:06.913Z,94898.59
2022-12-13T14:55:37.607Z,94875.53
2022-12-13T14:58:18.008Z,94898.00
2022-12-13T15:00:47.372Z,94887.66
2022-12-13T15:03:23.015Z,94890.91
2022-12-13T15:05:55.688Z,94893.09
2022-12-13T15:08:26.446Z,94894.94
2022-12-13T15:10:57.279Z,94861.94
2022-12-13T15:13:34.575Z,94882.75
2022-12-13T15:16:10.536Z,94887.22
2022-12-13T15:18:39.801Z,94875.47
2022-12-13T15:21:22.148Z,94881.53
2022-12-13T15:23:54.278Z,94886.81
2022-12-13T15:26:29.085Z,94874.44
2022-12-13T15:29:00.737Z,94894.28
2022-12-13T15:31:29.667Z,94870.59
2022-12-13T15:34:28.358Z,94848.72
2022-12-13T15:36:59.456Z,94911.06
2022-12-13T15:39:32.460Z,94887.78
2022-12-13T15:42:01.443Z,94881.94
2022-12-13T15:44:32.191Z,94887.19
2022-12-13T15:47:04.245Z,94870.59
2022-12-13T15:49:36.388Z,94879.06
2022-12-13T15:52:08.332Z,94871.16
2022-12-13T15:54:38.184Z,94870.53
2022-12-13T15:57:15.789Z,94866.50
2022-12-13T15:59:46.118Z,94862.25
2022-12-13T16:02:18.466Z,94873.56
2022-12-13T16:04:47.467Z,94835.69
2022-12-13T16:07:26.188Z,94860.41
2022-12-13T16:09:57.043Z,94869.66
2022-12-13T16:12:30.679Z,94866.03
2022-12-13T16:15:29.092Z,94863.22
2022-12-13T16:18:07.997Z,94863.22
2022-12-13T16:20:36.904Z,94860.97
2022-12-13T16:23:08.951Z,94861.16
2022-12-13T16:25:39.183Z,94839.28
2022-12-13T16:28:08.095Z,94853.88
2022-12-13T16:31:02.511Z,94847.00
2022-12-13T16:33:31.380Z,94850.63
2022-12-13T16:35:59.829Z,94844.56
2022-12-13T16:38:29.553Z,94840.94
2022-12-13T16:41:08.958Z,94817.44
2022-12-13T16:43:41.513Z,94845.53
2022-12-13T16:47:13.373Z,94837.84
2022-12-13T16:49:06.730Z,94840.00
2022-12-13T16:51:35.132Z,94840.66
2022-12-13T16:54:03.555Z,94843.81
2022-12-13T16:56:33.547Z,94834.72
2022-12-13T16:59:02.183Z,94839.75
2022-12-13T17:01:33.087Z,94787.66
2022-12-13T17:04:05.439Z,94832.03
2022-12-13T17:06:37.492Z,94834.88
2022-12-13T17:09:06.032Z,94840.31
2022-12-13T17:11:36.061Z,94817.63
2022-12-13T17:14:05.914Z,94828.78
2022-12-13T17:16:35.079Z,94837.47
2022-12-13T17:19:04.505Z,94824.28
2022-12-13T17:21:32.915Z,94835.78
2022-12-13T17:24:03.019Z,94830.91
2022-12-13T17:26:31.429Z,94800.53
2022-12-13T17:29:01.676Z,94824.63
2022-12-13T17:31:35.297Z,94829.66
2022-12-13T17:34:04.717Z,94813.59
2022-12-13T17:36:33.502Z,94819.50
2022-12-13T17:39:03.081Z,94820.69
2022-12-13T17:41:31.404Z,94816.03
2022-12-13T17:44:01.811Z,94816.66
2022-12-13T17:46:30.195Z,94818.28
2022-12-13T17:48:58.869Z,94821.47
2022-12-13T17:51:27.265Z,94818.81
2022-12-13T17:53:55.762Z,94807.69
2022-12-13T17:56:24.356Z,94813.75
2022-12-13T17:58:52.761Z,94804.91
2022-12-13T18:01:23.980Z,94804.50
2022-12-13T18:03:54.988Z,94802.28
2022-12-13T18:06:23.656Z,94800.50
2022-12-13T18:08:52.531Z,94802.28
2022-12-13T18:11:37.640Z,94797.69
2022-12-13T18:14:07.684Z,94783.34
2022-12-13T18:16:39.105Z,94787.22
2022-12-13T18:19:10.098Z,94795.22
2022-12-13T18:21:39.321Z,94747.16
2022-12-13T18:24:08.716Z,94789.50
2022-12-13T18:26:37.525Z,94785.06
2022-12-13T18:29:06.440Z,94728.16
2022-12-13T18:31:35.087Z,94787.91
2022-12-13T18:34:05.152Z,94792.78
2022-12-13T18:36:33.553Z,94734.06
2022-12-13T18:39:02.269Z,94797.22
2022-12-13T18:41:32.379Z,94780.16
2022-12-13T18:44:02.197Z,94800.84
2022-12-13T18:46:32.876Z,94800.22
2022-12-13T18:49:01.411Z,94799.22
2022-12-13T18:51:31.169Z,94799.22
2022-12-13T18:54:00.724Z,94794.59
2022-12-13T18:56:29.382Z,94790.38
2022-12-13T18:58:59.648Z,94791.97
2022-12-13T19:01:28.843Z,94799.22
2022-12-13T19:03:57.690Z,94794.75
2022-12-13T19:06:27.257Z,94778.53
2022-12-13T19:08:58.795Z,94771.25
2022-12-13T19:11:28.809Z,94783.38
2022-12-13T19:13:57.743Z,94780.38
2022-12-13T19:16:26.827Z,94768.88
2022-12-13T19:18:55.591Z,94772.13
2022-12-13T19:21:24.940Z,94767.44
2022-12-13T19:23:57.717Z,94773.94
2022-12-13T19:26:29.609Z,94768.03
2022-12-13T19:28:59.481Z,94766.44
2022-12-13T19:31:31.837Z,94768.69
2022-12-13T19:34:01.965Z,94688.34
2022-12-13T19:36:30.757Z,94750.00
2022-12-13T19:38:59.246Z,94770.44
2022-12-13T19:41:29.747Z,94768.69
2022-12-13T19:43:58.231Z,94762.81
2022-12-13T19:46:27.372Z,94762.81
2022-12-13T19:48:57.509Z,94755.97
2022-12-13T19:51:26.269Z,94746.69
2022-12-13T19:53:55.020Z,94751.09
2022-12-13T19:56:24.174Z,94709.41
2022-12-13T19:58:54.282Z,94733.81
2022-12-13T20:01:22.806Z,94747.16
2022-12-13T20:03:51.471Z,94750.16
2022-12-13T20:06:22.269Z,94742.03
2022-12-13T20:08:51.457Z,94748.91
2022-12-13T20:11:22.177Z,94725.38
2022-12-13T20:13:54.651Z,94719.75
2022-12-13T20:16:26.929Z,94750.16
2022-12-13T20:18:57.787Z,94745.53
2022-12-13T20:21:27.222Z,94747.16
2022-12-13T20:23:56.097Z,94738.06
2022-12-13T20:26:25.892Z,94775.16
2022-12-13T20:28:54.712Z,94755.81
2022-12-13T20:31:27.022Z,94746.13
2022-12-13T20:33:57.051Z,94746.13
2022-12-13T20:36:27.902Z,94678.56
2022-12-13T20:38:58.021Z,94723.53
2022-12-13T20:41:28.266Z,94725.94
2022-12-13T20:43:58.264Z,94740.56
2022-12-13T20:46:29.160Z,94733.97
2022-12-13T20:48:59.262Z,94718.81
2022-12-13T20:51:29.781Z,94727.69
2022-12-13T20:53:58.888Z,94724.47
2022-12-13T20:56:28.916Z,94730.53
2022-12-13T20:58:57.529Z,94729.88
2022-12-13T21:01:30.534Z,94719.19
2022-12-13T21:04:01.423Z,94661.38
2022-12-13T21:06:30.570Z,94718.03
2022-12-13T21:09:02.990Z,94721.25
2022-12-13T21:11:33.081Z,94722.03
2022-12-13T21:14:09.131Z,94718.03
2022-12-13T21:16:44.440Z,94719.28
2022-12-13T21:19:14.909Z,94715.25
2022-12-13T21:21:43.412Z,94707.16
2022-12-13T21:24:15.145Z,94710.00
2022-12-13T21:26:43.543Z,94697.06
2022-12-13T21:29:12.993Z,94683.69
2022-12-13T21:31:48.866Z,94694.03
2022-12-13T21:34:18.990Z,94692.22
2022-12-13T21:36:48.877Z,94688.78
2022-12-13T21:39:18.559Z,94637.25
2022-12-13T21:41:47.351Z,94677.09
2022-12-13T21:44:17.122Z,94680.97
2022-12-13T21:47:11.244Z,94612.63
2022-12-13T21:49:35.295Z,94679.97
2022-12-13T21:52:03.677Z,94683.41
2022-12-13T21:54:32.321Z,94675.13
2022-12-13T21:57:18.298Z,94679.34
2022-12-13T21:59:47.491Z,94671.09
2022-12-13T22:02:19.366Z,94659.84
2022-12-13T22:04:49.621Z,94665.84
2022-12-13T22:07:19.990Z,94665.84
2022-12-13T22:09:49.162Z,94657.97
2022-12-13T22:12:22.765Z,94642.22
2022-12-13T22:14:52.164Z,94656.41
2022-12-13T22:17:29.670Z,94650.34
2022-12-13T22:20:03.422Z,94659.78
2022-12-13T22:22:31.794Z,94640.16
2022-12-13T22:25:00.349Z,94599.94
2022-12-13T22:27:28.790Z,94650.06
2022-12-13T22:29:58.704Z,94647.06
2022-12-13T22:32:31.308Z,94641.03
2022-12-13T22:35:00.513Z,94640.22
2022-12-13T22:37:28.859Z,94634.59
2022-12-13T22:39:57.282Z,94632.38
2022-12-13T22:42:25.758Z,94624.09
2022-12-13T22:44:54.121Z,94608.50
2022-12-13T22:47:22.495Z,94621.09
2022-12-13T22:49:52.350Z,94610.41
2022-12-13T22:52:20.685Z,94614.22
2022-12-13T22:54:49.016Z,94614.00
2022-12-13T22:57:17.379Z,94616.03
2022-12-13T22:59:45.783Z,94612.59
2022-12-13T23:02:14.170Z,94596.63
2022-12-13T23:04:42.586Z,94605.31
2022-12-13T23:07:12.325Z,94610.41
2022-12-13T23:09:40.784Z,94603.97
2022-12-13T23:12:26.803Z,94557.94
2022-12-13T23:14:55.324Z,94590.66
2022-12-13T23:17:23.619Z,94595.50
2022-12-13T23:19:53.642Z,94598.75
2022-12-13T23:22:25.219Z,94581.81
2022-12-13T23:24:54.536Z,94578.59
2022-12-13T23:27:24.377Z,94571.78
2022-12-13T23:29:53.365Z,94561.28
2022-12-13T23:32:21.641Z,94562.50
2022-12-13T23:34:50.030Z,94493.81
2022-12-13T23:37:18.365Z,94564.13
2022-12-13T23:39:48.720Z,94561.50
2022-12-13T23:42:17.155Z,94555.25
2022-12-13T23:44:45.581Z,94552.00
2022-12-13T23:47:13.974Z,94543.16
2022-12-13T23:49:42.329Z,94543.97
2022-12-13T23:52:10.954Z,94511.66
2022-12-13T23:54:39.657Z,94538.50
2022-12-13T23:57:09.382Z,94531.88
2022-12-13T23:59:37.722Z,94539.34
